sensor_id;sensor_type;location;lat;lon;timestamp;pressure;altitude;pressure_sealevel;temperature;humidity
5952;BME280;3001;42.622;23.194;2023-04-22T00:01:45;90963.88;;;10.62;80.50
5952;BME280;3001;42.622;23.194;2023-04-22T00:04:13;90959.75;;;10.70;81.06
5952;BME280;3001;42.622;23.194;2023-04-22T00:06:40;90962.34;;;10.70;80.26
5952;BME280;3001;42.622;23.194;2023-04-22T00:09:07;90963.88;;;10.62;80.65
5952;BME280;3001;42.622;23.194;2023-04-22T00:11:34;90967.22;;;10.71;80.27
5952;BME280;3001;42.622;23.194;2023-04-22T00:14:01;90967.72;;;10.56;81.20
5952;BME280;3001;42.622;23.194;2023-04-22T00:16:28;90968.47;;;10.40;81.52
5952;BME280;3001;42.622;23.194;2023-04-22T00:18:54;90965.13;;;10.23;82.35
5952;BME280;3001;42.622;23.194;2023-04-22T00:21:22;90963.75;;;10.33;81.75
5952;BME280;3001;42.622;23.194;2023-04-22T00:23:50;90968.31;;;10.20;81.98
5952;BME280;3001;42.622;23.194;2023-04-22T00:26:17;90966.81;;;10.35;81.22
5952;BME280;3001;42.622;23.194;2023-04-22T00:28:43;90970.16;;;10.44;81.20
5952;BME280;3001;42.622;23.194;2023-04-22T00:31:10;90971.53;;;10.42;80.99
5952;BME280;3001;42.622;23.194;2023-04-22T00:33:37;90979.00;;;10.18;81.53
5952;BME280;3001;42.622;23.194;2023-04-22T00:36:04;90976.22;;;9.98;82.54
5952;BME280;3001;42.622;23.194;2023-04-22T00:38:32;90976.69;;;10.00;83.04
5952;BME280;3001;42.622;23.194;2023-04-22T00:40:59;90980.53;;;10.02;82.99
5952;BME280;3001;42.622;23.194;2023-04-22T00:43:25;90980.81;;;10.01;82.85
5952;BME280;3001;42.622;23.194;2023-04-22T00:45:52;90979.63;;;10.15;82.02
5952;BME280;3001;42.622;23.194;2023-04-22T00:48:19;90980.69;;;10.14;81.65
5952;BME280;3001;42.622;23.194;2023-04-22T00:50:46;90987.25;;;10.28;81.59
5952;BME280;3001;42.622;23.194;2023-04-22T00:53:12;90981.31;;;10.11;82.26
5952;BME280;3001;42.622;23.194;2023-04-22T00:55:41;90983.84;;;9.94;82.82
5952;BME280;3001;42.622;23.194;2023-04-22T00:58:08;90978.19;;;9.84;83.13
5952;BME280;3001;42.622;23.194;2023-04-22T01:00:35;90981.34;;;9.72;83.72
5952;BME280;3001;42.622;23.194;2023-04-22T01:03:02;90983.88;;;10.11;82.73
5952;BME280;3001;42.622;23.194;2023-04-22T01:05:32;90977.47;;;10.26;81.97
5952;BME280;3001;42.622;23.194;2023-04-22T01:07:58;90983.28;;;10.14;82.63
5952;BME280;3001;42.622;23.194;2023-04-22T01:10:25;90983.28;;;10.14;83.70
5952;BME280;3001;42.622;23.194;2023-04-22T01:12:54;90976.72;;;10.17;83.06
5952;BME280;3001;42.622;23.194;2023-04-22T01:15:20;90975.94;;;10.16;81.74
5952;BME280;3001;42.622;23.194;2023-04-22T01:17:47;90983.00;;;10.32;81.45
5952;BME280;3001;42.622;23.194;2023-04-22T01:20:14;90976.25;;;10.40;81.33
5952;BME280;3001;42.622;23.194;2023-04-22T01:22:43;90968.50;;;10.32;81.21
5952;BME280;3001;42.622;23.194;2023-04-22T01:25:12;90974.16;;;10.42;80.90
5952;BME280;3001;42.622;23.194;2023-04-22T01:27:39;90976.56;;;10.38;81.19
5952;BME280;3001;42.622;23.194;2023-04-22T01:30:07;90976.13;;;10.62;80.71
5952;BME280;3001;42.622;23.194;2023-04-22T01:32:34;90976.72;;;10.50;80.39
5952;BME280;3001;42.622;23.194;2023-04-22T01:35:01;90978.41;;;10.38;80.45
5952;BME280;3001;42.622;23.194;2023-04-22T01:37:28;90975.50;;;10.48;80.17
5952;BME280;3001;42.622;23.194;2023-04-22T01:39:57;90973.19;;;10.38;80.88
5952;BME280;3001;42.622;23.194;2023-04-22T01:42:25;90976.41;;;10.18;81.87
5952;BME280;3001;42.622;23.194;2023-04-22T01:44:52;90975.94;;;10.16;82.20
5952;BME280;3001;42.622;23.194;2023-04-22T01:47:19;90972.75;;;10.19;82.38
5952;BME280;3001;42.622;23.194;2023-04-22T01:49:45;90972.75;;;10.02;82.90
5952;BME280;3001;42.622;23.194;2023-04-22T01:52:12;90975.44;;;9.97;83.57
5952;BME280;3001;42.622;23.194;2023-04-22T01:54:39;90973.03;;;10.01;83.83
5952;BME280;3001;42.622;23.194;2023-04-22T01:57:09;90975.13;;;9.90;83.61
5952;BME280;3001;42.622;23.194;2023-04-22T01:59:39;90968.88;;;9.91;83.52
5952;BME280;3001;42.622;23.194;2023-04-22T02:02:06;90969.63;;;9.75;83.94
5952;BME280;3001;42.622;23.194;2023-04-22T02:04:33;90971.41;;;9.66;85.86
5952;BME280;3001;42.622;23.194;2023-04-22T02:06:59;90960.16;;;9.70;85.57
5952;BME280;3001;42.622;23.194;2023-04-22T02:09:26;90968.44;;;9.89;85.42
5952;BME280;3001;42.622;23.194;2023-04-22T02:11:53;90972.25;;;9.92;85.36
5952;BME280;3001;42.622;23.194;2023-04-22T02:14:19;90967.41;;;10.07;84.73
5952;BME280;3001;42.622;23.194;2023-04-22T02:16:47;90965.66;;;9.86;85.12
5952;BME280;3001;42.622;23.194;2023-04-22T02:19:14;90966.03;;;10.01;84.60
5952;BME280;3001;42.622;23.194;2023-04-22T02:21:41;90962.84;;;10.21;83.38
5952;BME280;3001;42.622;23.194;2023-04-22T02:24:08;90967.56;;;10.19;83.25
5952;BME280;3001;42.622;23.194;2023-04-22T02:26:35;90957.63;;;10.29;83.08
5952;BME280;3001;42.622;23.194;2023-04-22T02:29:01;90959.63;;;10.32;83.76
5952;BME280;3001;42.622;23.194;2023-04-22T02:31:28;90964.22;;;10.44;83.06
5952;BME280;3001;42.622;23.194;2023-04-22T02:33:56;90968.78;;;10.64;83.23
5952;BME280;3001;42.622;23.194;2023-04-22T02:36:26;90966.81;;;10.52;82.46
5952;BME280;3001;42.622;23.194;2023-04-22T02:38:54;90968.16;;;10.75;81.58
5952;BME280;3001;42.622;23.194;2023-04-22T02:41:21;90975.75;;;10.97;80.20
5952;BME280;3001;42.622;23.194;2023-04-22T02:43:47;90974.84;;;10.93;80.12
5952;BME280;3001;42.622;23.194;2023-04-22T02:46:14;90981.06;;;10.92;80.56
5952;BME280;3001;42.622;23.194;2023-04-22T02:48:41;90975.78;;;10.80;81.81
5952;BME280;3001;42.622;23.194;2023-04-22T02:51:10;90980.38;;;10.58;81.80
5952;BME280;3001;42.622;23.194;2023-04-22T02:53:37;90981.25;;;10.79;81.09
5952;BME280;3001;42.622;23.194;2023-04-22T02:56:04;90974.88;;;10.59;81.60
5952;BME280;3001;42.622;23.194;2023-04-22T02:58:31;90977.00;;;10.74;81.90
5952;BME280;3001;42.622;23.194;2023-04-22T03:00:57;90986.47;;;10.70;81.93
5952;BME280;3001;42.622;23.194;2023-04-22T03:03:24;90993.59;;;11.07;80.74
5952;BME280;3001;42.622;23.194;2023-04-22T03:05:51;90985.81;;;10.99;80.95
5952;BME280;3001;42.622;23.194;2023-04-22T03:08:19;90982.31;;;10.86;81.80
5952;BME280;3001;42.622;23.194;2023-04-22T03:10:46;90984.91;;;10.95;81.96
5952;BME280;3001;42.622;23.194;2023-04-22T03:13:12;90982.91;;;11.00;81.31
5952;BME280;3001;42.622;23.194;2023-04-22T03:15:39;90979.97;;;11.10;81.19
5952;BME280;3001;42.622;23.194;2023-04-22T03:18:06;90981.00;;;11.18;80.95
5952;BME280;3001;42.622;23.194;2023-04-22T03:20:33;90987.00;;;11.10;82.32
5952;BME280;3001;42.622;23.194;2023-04-22T03:22:59;90994.19;;;11.13;81.81
5952;BME280;3001;42.622;23.194;2023-04-22T03:25:28;90998.03;;;11.07;81.05
5952;BME280;3001;42.622;23.194;2023-04-22T03:27:54;90998.50;;;11.00;79.94
5952;BME280;3001;42.622;23.194;2023-04-22T03:30:21;90997.56;;;11.13;78.85
5952;BME280;3001;42.622;23.194;2023-04-22T03:32:48;91005.06;;;11.06;80.18
5952;BME280;3001;42.622;23.194;2023-04-22T03:35:15;91003.72;;;10.92;81.31
5952;BME280;3001;42.622;23.194;2023-04-22T03:37:42;91006.78;;;10.77;81.76
5952;BME280;3001;42.622;23.194;2023-04-22T03:40:09;91003.72;;;10.83;81.24
5952;BME280;3001;42.622;23.194;2023-04-22T03:42:37;91009.22;;;10.90;81.51
5952;BME280;3001;42.622;23.194;2023-04-22T03:45:05;91012.88;;;10.81;82.02
5952;BME280;3001;42.622;23.194;2023-04-22T03:47:32;91010.28;;;10.81;82.14
5952;BME280;3001;42.622;23.194;2023-04-22T03:49:58;91011.50;;;10.92;81.54
5952;BME280;3001;42.622;23.194;2023-04-22T03:52:25;91011.84;;;10.73;82.89
5952;BME280;3001;42.622;23.194;2023-04-22T03:54:52;91011.69;;;10.70;82.54
5952;BME280;3001;42.622;23.194;2023-04-22T03:57:18;91008.66;;;10.59;83.10
5952;BME280;3001;42.622;23.194;2023-04-22T03:59:46;91018.69;;;10.78;83.35
5952;BME280;3001;42.622;23.194;2023-04-22T04:02:13;91017.78;;;10.99;82.14
5952;BME280;3001;42.622;23.194;2023-04-22T04:04:40;91020.84;;;10.93;83.22
5952;BME280;3001;42.622;23.194;2023-04-22T04:07:07;91025.69;;;11.11;81.08
5952;BME280;3001;42.622;23.194;2023-04-22T04:09:34;91024.00;;;11.24;80.67
5952;BME280;3001;42.622;23.194;2023-04-22T04:12:00;91032.84;;;11.23;80.16
5952;BME280;3001;42.622;23.194;2023-04-22T04:14:27;91031.16;;;11.27;80.11
5952;BME280;3001;42.622;23.194;2023-04-22T04:16:55;91028.88;;;11.17;80.55
5952;BME280;3001;42.622;23.194;2023-04-22T04:19:22;91033.81;;;11.10;82.12
5952;BME280;3001;42.622;23.194;2023-04-22T04:21:49;91032.69;;;11.28;80.40
5952;BME280;3001;42.622;23.194;2023-04-22T04:24:16;91039.88;;;11.31;80.27
5952;BME280;3001;42.622;23.194;2023-04-22T04:26:43;91031.25;;;11.56;79.49
5952;BME280;3001;42.622;23.194;2023-04-22T04:29:09;91041.94;;;11.54;79.16
5952;BME280;3001;42.622;23.194;2023-04-22T04:31:37;91042.06;;;11.66;79.09
5952;BME280;3001;42.622;23.194;2023-04-22T04:34:06;91041.56;;;11.35;80.68
5952;BME280;3001;42.622;23.194;2023-04-22T04:36:32;91037.31;;;11.14;81.24
5952;BME280;3001;42.622;23.194;2023-04-22T04:38:59;91045.53;;;11.24;82.17
5952;BME280;3001;42.622;23.194;2023-04-22T04:41:26;91046.63;;;11.23;82.80
5952;BME280;3001;42.622;23.194;2023-04-22T04:43:53;91046.16;;;11.21;83.06
5952;BME280;3001;42.622;23.194;2023-04-22T04:46:20;91049.81;;;11.29;83.30
5952;BME280;3001;42.622;23.194;2023-04-22T04:48:47;91053.34;;;11.24;83.65
5952;BME280;3001;42.622;23.194;2023-04-22T04:51:17;91046.22;;;11.59;81.70
5952;BME280;3001;42.622;23.194;2023-04-22T04:53:44;91051.75;;;11.49;82.15
5952;BME280;3001;42.622;23.194;2023-04-22T04:56:10;91055.44;;;11.48;81.76
5952;BME280;3001;42.622;23.194;2023-04-22T04:58:37;91058.13;;;11.68;81.50
5952;BME280;3001;42.622;23.194;2023-04-22T05:01:04;91056.47;;;11.64;82.36
5952;BME280;3001;42.622;23.194;2023-04-22T05:03:30;91058.94;;;11.60;82.31
5952;BME280;3001;42.622;23.194;2023-04-22T05:05:57;91060.63;;;11.48;82.79
5952;BME280;3001;42.622;23.194;2023-04-22T05:08:25;91062.41;;;11.73;82.49
5952;BME280;3001;42.622;23.194;2023-04-22T05:10:52;91058.66;;;11.91;82.61
5952;BME280;3001;42.622;23.194;2023-04-22T05:13:19;91062.56;;;11.76;82.07
5952;BME280;3001;42.622;23.194;2023-04-22T05:15:46;91058.53;;;11.87;81.28
5952;BME280;3001;42.622;23.194;2023-04-22T05:18:12;91055.63;;;11.89;81.26
5952;BME280;3001;42.622;23.194;2023-04-22T05:20:39;91057.66;;;12.03;81.36
5952;BME280;3001;42.622;23.194;2023-04-22T05:23:06;91054.72;;;12.13;81.25
5952;BME280;3001;42.622;23.194;2023-04-22T05:25:34;91061.41;;;12.23;81.84
5952;BME280;3001;42.622;23.194;2023-04-22T05:28:01;91062.13;;;12.03;82.90
5952;BME280;3001;42.622;23.194;2023-04-22T05:30:27;91064.91;;;12.27;81.69
5952;BME280;3001;42.622;23.194;2023-04-22T05:32:54;91068.63;;;12.46;80.70
5952;BME280;3001;42.622;23.194;2023-04-22T05:35:20;91064.38;;;12.42;80.80
5952;BME280;3001;42.622;23.194;2023-04-22T05:37:47;91067.72;;;12.42;80.73
5952;BME280;3001;42.622;23.194;2023-04-22T05:40:14;91067.09;;;12.66;80.10
5952;BME280;3001;42.622;23.194;2023-04-22T05:42:42;91070.59;;;12.49;81.71
5952;BME280;3001;42.622;23.194;2023-04-22T05:45:09;91074.03;;;12.82;79.97
5952;BME280;3001;42.622;23.194;2023-04-22T05:47:36;91077.72;;;12.81;79.22
5952;BME280;3001;42.622;23.194;2023-04-22T05:50:03;91081.31;;;12.97;79.32
5952;BME280;3001;42.622;23.194;2023-04-22T05:52:30;91083.63;;;12.99;79.27
5952;BME280;3001;42.622;23.194;2023-04-22T05:54:57;91085.09;;;13.20;76.97
5952;BME280;3001;42.622;23.194;2023-04-22T05:57:23;91087.06;;;13.23;76.20
5952;BME280;3001;42.622;23.194;2023-04-22T05:59:52;91084.47;;;13.23;76.35
5952;BME280;3001;42.622;23.194;2023-04-22T06:02:18;91085.72;;;13.38;76.68
5952;BME280;3001;42.622;23.194;2023-04-22T06:04:45;91082.38;;;13.49;76.16
5952;BME280;3001;42.622;23.194;2023-04-22T06:07:12;91080.03;;;13.68;75.63
5952;BME280;3001;42.622;23.194;2023-04-22T06:09:38;91086.00;;;13.69;75.20
5952;BME280;3001;42.622;23.194;2023-04-22T06:12:05;91089.34;;;14.01;73.23
5952;BME280;3001;42.622;23.194;2023-04-22T06:14:32;91084.88;;;14.02;74.01
5952;BME280;3001;42.622;23.194;2023-04-22T06:17:00;91083.81;;;14.15;72.68
5952;BME280;3001;42.622;23.194;2023-04-22T06:19:27;91082.50;;;14.45;71.79
5952;BME280;3001;42.622;23.194;2023-04-22T06:21:53;91082.63;;;14.48;71.51
5952;BME280;3001;42.622;23.194;2023-04-22T06:24:21;91088.00;;;14.79;69.62
5952;BME280;3001;42.622;23.194;2023-04-22T06:26:47;91092.94;;;14.81;67.95
5952;BME280;3001;42.622;23.194;2023-04-22T06:29:14;91092.25;;;14.84;67.19
5952;BME280;3001;42.622;23.194;2023-04-22T06:31:41;91091.47;;;14.95;68.56
5952;BME280;3001;42.622;23.194;2023-04-22T06:34:09;91091.09;;;15.09;69.01
5952;BME280;3001;42.622;23.194;2023-04-22T06:36:36;91090.84;;;15.38;67.71
5952;BME280;3001;42.622;23.194;2023-04-22T06:39:02;91092.28;;;15.51;67.48
5952;BME280;3001;42.622;23.194;2023-04-22T06:41:30;91092.75;;;15.53;66.96
5952;BME280;3001;42.622;23.194;2023-04-22T06:43:56;91094.53;;;15.64;67.20
5952;BME280;3001;42.622;23.194;2023-04-22T06:46:23;91095.28;;;15.64;68.91
5952;BME280;3001;42.622;23.194;2023-04-22T06:48:50;91094.91;;;15.78;67.09
5952;BME280;3001;42.622;23.194;2023-04-22T06:51:18;91092.91;;;15.87;67.91
5952;BME280;3001;42.622;23.194;2023-04-22T06:53:44;91094.59;;;16.10;68.59
5952;BME280;3001;42.622;23.194;2023-04-22T06:56:11;91097.97;;;16.26;66.18
5952;BME280;3001;42.622;23.194;2023-04-22T06:58:38;91094.34;;;16.31;65.49
5952;BME280;3001;42.622;23.194;2023-04-22T07:01:05;91102.75;;;16.36;65.14
5952;BME280;3001;42.622;23.194;2023-04-22T07:03:31;91093.16;;;16.44;64.02
5952;BME280;3001;42.622;23.194;2023-04-22T07:05:58;91098.00;;;16.57;64.49
5952;BME280;3001;42.622;23.194;2023-04-22T07:08:26;91097.47;;;16.67;65.11
5952;BME280;3001;42.622;23.194;2023-04-22T07:10:53;91089.84;;;16.78;65.09
5952;BME280;3001;42.622;23.194;2023-04-22T07:13:19;91099.91;;;16.76;65.07
5952;BME280;3001;42.622;23.194;2023-04-22T07:15:46;91093.38;;;16.85;64.37
5952;BME280;3001;42.622;23.194;2023-04-22T07:18:13;91091.53;;;16.86;63.91
5952;BME280;3001;42.622;23.194;2023-04-22T07:20:39;91096.09;;;16.89;65.74
5952;BME280;3001;42.622;23.194;2023-04-22T07:23:06;91105.22;;;16.95;66.44
5952;BME280;3001;42.622;23.194;2023-04-22T07:25:34;91105.72;;;17.00;65.53
5952;BME280;3001;42.622;23.194;2023-04-22T07:28:01;91100.56;;;16.88;64.26
5952;BME280;3001;42.622;23.194;2023-04-22T07:30:28;91106.94;;;17.06;65.04
5952;BME280;3001;42.622;23.194;2023-04-22T07:32:54;91112.56;;;17.24;63.85
5952;BME280;3001;42.622;23.194;2023-04-22T07:35:21;91110.78;;;17.28;62.72
5952;BME280;3001;42.622;23.194;2023-04-22T07:37:47;91109.53;;;17.37;64.31
5952;BME280;3001;42.622;23.194;2023-04-22T07:40:15;91115.53;;;17.56;66.30
5952;BME280;3001;42.622;23.194;2023-04-22T07:42:43;91105.13;;;17.82;63.93
5952;BME280;3001;42.622;23.194;2023-04-22T07:45:10;91123.19;;;17.84;62.54
5952;BME280;3001;42.622;23.194;2023-04-22T07:47:36;91112.16;;;17.97;61.82
5952;BME280;3001;42.622;23.194;2023-04-22T07:50:04;91113.56;;;17.91;62.04
5952;BME280;3001;42.622;23.194;2023-04-22T07:52:31;91113.75;;;18.02;59.04
5952;BME280;3001;42.622;23.194;2023-04-22T07:54:58;91124.28;;;18.02;59.50
5952;BME280;3001;42.622;23.194;2023-04-22T07:57:24;91118.84;;;18.14;59.96
5952;BME280;3001;42.622;23.194;2023-04-22T07:59:52;91120.81;;;17.98;59.50
5952;BME280;3001;42.622;23.194;2023-04-22T08:02:19;91122.06;;;18.04;59.83
5952;BME280;3001;42.622;23.194;2023-04-22T08:04:46;91112.97;;;18.01;59.42
5952;BME280;3001;42.622;23.194;2023-04-22T08:07:13;91119.72;;;17.99;59.29
5952;BME280;3001;42.622;23.194;2023-04-22T08:09:40;91120.56;;;18.06;59.92
5952;BME280;3001;42.622;23.194;2023-04-22T08:12:06;91113.94;;;18.12;58.93
5952;BME280;3001;42.622;23.194;2023-04-22T08:14:33;91114.25;;;18.30;58.84
5952;BME280;3001;42.622;23.194;2023-04-22T08:17:01;91116.44;;;18.47;57.66
5952;BME280;3001;42.622;23.194;2023-04-22T08:19:28;91118.53;;;18.86;56.85
5952;BME280;3001;42.622;23.194;2023-04-22T08:21:54;91119.25;;;19.09;55.99
5952;BME280;3001;42.622;23.194;2023-04-22T08:24:22;91114.28;;;19.27;54.58
5952;BME280;3001;42.622;23.194;2023-04-22T08:26:49;91118.97;;;19.40;56.55
5952;BME280;3001;42.622;23.194;2023-04-22T08:29:15;91115.66;;;19.46;54.54
5952;BME280;3001;42.622;23.194;2023-04-22T08:31:42;91112.78;;;19.58;56.43
5952;BME280;3001;42.622;23.194;2023-04-22T08:34:10;91109.88;;;20.00;54.63
5952;BME280;3001;42.622;23.194;2023-04-22T08:36:37;91119.06;;;20.09;53.23
5952;BME280;3001;42.622;23.194;2023-04-22T08:39:04;91110.47;;;20.19;52.92
5952;BME280;3001;42.622;23.194;2023-04-22T08:41:33;91109.16;;;20.39;53.67
5952;BME280;3001;42.622;23.194;2023-04-22T08:44:00;91110.16;;;20.68;52.88
5952;BME280;3001;42.622;23.194;2023-04-22T08:46:27;91110.63;;;20.80;49.51
5952;BME280;3001;42.622;23.194;2023-04-22T08:48:54;91101.41;;;21.04;49.69
5952;BME280;3001;42.622;23.194;2023-04-22T08:51:24;91105.38;;;21.34;50.14
5952;BME280;3001;42.622;23.194;2023-04-22T08:53:51;91100.50;;;21.43;48.25
5952;BME280;3001;42.622;23.194;2023-04-22T08:56:19;91105.84;;;21.50;45.12
5952;BME280;3001;42.622;23.194;2023-04-22T08:58:47;91106.19;;;21.41;47.16
5952;BME280;3001;42.622;23.194;2023-04-22T09:01:14;91106.41;;;21.15;43.32
5952;BME280;3001;42.622;23.194;2023-04-22T09:03:42;91095.41;;;21.10;45.66
5952;BME280;3001;42.622;23.194;2023-04-22T09:06:09;91095.53;;;21.31;45.48
5952;BME280;3001;42.622;23.194;2023-04-22T09:08:37;91086.72;;;21.06;43.98
5952;BME280;3001;42.622;23.194;2023-04-22T09:11:05;91098.09;;;21.17;48.00
5952;BME280;3001;42.622;23.194;2023-04-22T09:13:31;91088.31;;;21.21;47.10
5952;BME280;3001;42.622;23.194;2023-04-22T09:15:58;91091.06;;;21.42;45.95
5952;BME280;3001;42.622;23.194;2023-04-22T09:18:25;91087.09;;;21.76;44.42
5952;BME280;3001;42.622;23.194;2023-04-22T09:20:55;91083.66;;;21.65;44.52
5952;BME280;3001;42.622;23.194;2023-04-22T09:23:22;91084.31;;;21.51;44.81
5952;BME280;3001;42.622;23.194;2023-04-22T09:25:50;91083.22;;;21.59;43.65
5952;BME280;3001;42.622;23.194;2023-04-22T09:28:18;91085.59;;;21.75;44.36
5952;BME280;3001;42.622;23.194;2023-04-22T09:30:46;91076.13;;;21.70;46.95
5952;BME280;3001;42.622;23.194;2023-04-22T09:33:13;91080.59;;;21.63;42.02
5952;BME280;3001;42.622;23.194;2023-04-22T09:35:42;91080.28;;;21.68;42.61
5952;BME280;3001;42.622;23.194;2023-04-22T09:38:10;91076.13;;;21.74;44.66
5952;BME280;3001;42.622;23.194;2023-04-22T09:40:40;91065.19;;;21.79;42.75
5952;BME280;3001;42.622;23.194;2023-04-22T09:43:09;91065.94;;;21.76;43.53
5952;BME280;3001;42.622;23.194;2023-04-22T09:45:38;91066.34;;;21.85;44.06
5952;BME280;3001;42.622;23.194;2023-04-22T09:48:06;91067.16;;;22.06;44.67
5952;BME280;3001;42.622;23.194;2023-04-22T09:50:35;91056.28;;;22.39;41.86
5952;BME280;3001;42.622;23.194;2023-04-22T09:53:03;91055.16;;;22.65;41.97
5952;BME280;3001;42.622;23.194;2023-04-22T09:55:33;91065.00;;;22.75;41.09
5952;BME280;3001;42.622;23.194;2023-04-22T09:58:04;91067.63;;;22.50;41.39
5952;BME280;3001;42.622;23.194;2023-04-22T10:00:34;91057.44;;;22.59;36.99
5952;BME280;3001;42.622;23.194;2023-04-22T10:03:02;91063.78;;;22.20;37.80
5952;BME280;3001;42.622;23.194;2023-04-22T10:05:29;91069.47;;;22.32;37.93
5952;BME280;3001;42.622;23.194;2023-04-22T10:07:56;91065.22;;;21.86;38.89
5952;BME280;3001;42.622;23.194;2023-04-22T10:10:23;91059.72;;;21.37;39.66
5952;BME280;3001;42.622;23.194;2023-04-22T10:12:51;91066.91;;;21.43;39.35
5952;BME280;3001;42.622;23.194;2023-04-22T10:15:18;91055.91;;;21.31;40.16
5952;BME280;3001;42.622;23.194;2023-04-22T10:17:47;91049.41;;;21.18;39.16
5952;BME280;3001;42.622;23.194;2023-04-22T10:20:17;91047.88;;;21.10;39.48
5952;BME280;3001;42.622;23.194;2023-04-22T10:22:46;91041.91;;;21.23;38.10
5952;BME280;3001;42.622;23.194;2023-04-22T10:25:13;91045.94;;;21.04;39.47
5952;BME280;3001;42.622;23.194;2023-04-22T10:27:52;91041.31;;;20.83;41.63
5952;BME280;3001;42.622;23.194;2023-04-22T10:30:26;91038.69;;;20.90;42.44
5952;BME280;3001;42.622;23.194;2023-04-22T10:32:55;91034.00;;;21.27;42.57
5952;BME280;3001;42.622;23.194;2023-04-22T10:35:26;91029.59;;;21.59;46.11
5952;BME280;3001;42.622;23.194;2023-04-22T10:37:54;91030.88;;;21.96;46.89
5952;BME280;3001;42.622;23.194;2023-04-22T10:40:21;91035.06;;;22.18;45.69
5952;BME280;3001;42.622;23.194;2023-04-22T10:42:50;91034.75;;;22.58;43.88
5952;BME280;3001;42.622;23.194;2023-04-22T10:45:17;91038.13;;;22.73;43.32
5952;BME280;3001;42.622;23.194;2023-04-22T10:47:44;91043.78;;;22.82;42.99
5952;BME280;3001;42.622;23.194;2023-04-22T10:50:15;91038.88;;;22.63;38.91
5952;BME280;3001;42.622;23.194;2023-04-22T10:52:46;91034.00;;;22.51;40.86
5952;BME280;3001;42.622;23.194;2023-04-22T10:55:13;91035.44;;;22.34;41.53
5952;BME280;3001;42.622;23.194;2023-04-22T10:57:41;91032.78;;;22.27;42.70
5952;BME280;3001;42.622;23.194;2023-04-22T11:00:37;91040.72;;;22.06;41.47
5952;BME280;3001;42.622;23.194;2023-04-22T11:03:11;91039.88;;;21.85;41.97
5952;BME280;3001;42.622;23.194;2023-04-22T11:05:39;91035.38;;;21.78;40.52
5952;BME280;3001;42.622;23.194;2023-04-22T11:08:10;91028.56;;;21.77;38.86
5952;BME280;3001;42.622;23.194;2023-04-22T11:10:39;91020.69;;;22.16;42.63
5952;BME280;3001;42.622;23.194;2023-04-22T11:13:08;91029.00;;;22.35;38.10
5952;BME280;3001;42.622;23.194;2023-04-22T11:15:37;91026.78;;;22.72;41.87
5952;BME280;3001;42.622;23.194;2023-04-22T11:18:08;91031.31;;;22.82;41.33
5952;BME280;3001;42.622;23.194;2023-04-22T11:20:35;91033.88;;;23.38;38.74
5952;BME280;3001;42.622;23.194;2023-04-22T11:23:04;91032.31;;;23.54;38.67
5952;BME280;3001;42.622;23.194;2023-04-22T11:25:30;91040.28;;;23.54;33.72
5952;BME280;3001;42.622;23.194;2023-04-22T11:27:57;91037.22;;;23.59;35.47
5952;BME280;3001;42.622;23.194;2023-04-22T11:30:25;91040.28;;;23.54;35.87
5952;BME280;3001;42.622;23.194;2023-04-22T11:32:54;91036.06;;;23.60;37.49
5952;BME280;3001;42.622;23.194;2023-04-22T11:35:23;91039.81;;;23.73;34.81
5952;BME280;3001;42.622;23.194;2023-04-22T11:37:52;91037.50;;;23.86;36.50
5952;BME280;3001;42.622;23.194;2023-04-22T11:40:23;91034.63;;;24.24;37.11
5952;BME280;3001;42.622;23.194;2023-04-22T11:42:51;91045.47;;;24.51;35.17
5952;BME280;3001;42.622;23.194;2023-04-22T11:45:18;91042.41;;;24.56;35.84
5952;BME280;3001;42.622;23.194;2023-04-22T11:47:46;91047.63;;;24.66;35.63
5952;BME280;3001;42.622;23.194;2023-04-22T11:50:14;91035.50;;;24.65;37.29
5952;BME280;3001;42.622;23.194;2023-04-22T11:52:46;91048.44;;;24.63;36.07
5952;BME280;3001;42.622;23.194;2023-04-22T11:55:14;91046.81;;;24.76;35.93
5952;BME280;3001;42.622;23.194;2023-04-22T11:57:44;91048.34;;;24.74;37.36
5952;BME280;3001;42.622;23.194;2023-04-22T12:00:13;91047.63;;;24.70;38.63
5952;BME280;3001;42.622;23.194;2023-04-22T12:02:41;91068.16;;;24.62;38.01
5952;BME280;3001;42.622;23.194;2023-04-22T12:05:10;91068.34;;;24.92;37.30
5952;BME280;3001;42.622;23.194;2023-04-22T12:07:38;91073.56;;;25.02;38.34
5952;BME280;3001;42.622;23.194;2023-04-22T12:10:06;91059.72;;;25.21;39.69
5952;BME280;3001;42.622;23.194;2023-04-22T12:12:33;91057.34;;;25.34;38.40
5952;BME280;3001;42.622;23.194;2023-04-22T12:15:12;91070.69;;;24.79;38.43
5952;BME280;3001;42.622;23.194;2023-04-22T12:17:39;91065.00;;;25.28;39.25
5952;BME280;3001;42.622;23.194;2023-04-22T12:20:10;91066.88;;;24.84;39.97
5952;BME280;3001;42.622;23.194;2023-04-22T12:22:36;91065.97;;;25.01;38.94
5952;BME280;3001;42.622;23.194;2023-04-22T12:25:04;91062.06;;;25.12;38.26
5952;BME280;3001;42.622;23.194;2023-04-22T12:27:31;91055.84;;;25.33;38.05
5952;BME280;3001;42.622;23.194;2023-04-22T12:29:57;91057.91;;;25.11;40.43
5952;BME280;3001;42.622;23.194;2023-04-22T12:32:26;91065.72;;;25.29;39.84
5952;BME280;3001;42.622;23.194;2023-04-22T12:34:52;91058.84;;;25.35;39.36
5952;BME280;3001;42.622;23.194;2023-04-22T12:37:19;91068.16;;;25.53;38.99
5952;BME280;3001;42.622;23.194;2023-04-22T12:39:46;91078.75;;;25.20;38.97
5952;BME280;3001;42.622;23.194;2023-04-22T12:42:13;91073.47;;;25.13;38.34
5952;BME280;3001;42.622;23.194;2023-04-22T12:44:39;91069.53;;;25.28;38.62
5952;BME280;3001;42.622;23.194;2023-04-22T12:47:07;91068.78;;;25.27;39.50
5952;BME280;3001;42.622;23.194;2023-04-22T12:49:36;91063.19;;;25.15;41.20
5952;BME280;3001;42.622;23.194;2023-04-22T12:52:04;91064.28;;;25.21;40.30
5952;BME280;3001;42.622;23.194;2023-04-22T12:54:31;91053.53;;;25.35;39.34
5952;BME280;3001;42.622;23.194;2023-04-22T12:56:58;91058.09;;;25.31;37.77
5952;BME280;3001;42.622;23.194;2023-04-22T12:59:25;91050.09;;;25.34;37.63
5952;BME280;3001;42.622;23.194;2023-04-22T13:01:52;91059.72;;;25.21;36.84
5952;BME280;3001;42.622;23.194;2023-04-22T13:04:20;91072.00;;;25.05;37.88
5952;BME280;3001;42.622;23.194;2023-04-22T13:06:48;91055.56;;;25.17;38.29
5952;BME280;3001;42.622;23.194;2023-04-22T13:09:21;91050.97;;;25.24;37.62
5952;BME280;3001;42.622;23.194;2023-04-22T13:11:48;91056.94;;;25.35;38.04
5952;BME280;3001;42.622;23.194;2023-04-22T13:14:14;91046.47;;;25.55;37.60